Pinehurst, Oregon
Current Conditions -  °F | °C
As of 3:53 PM on Thursday 18 Dec 2014 (Local Time) from KSIY Reporting Station
Scattered Clouds Scattered Clouds  
Wind Chill: 42°   Ceiling: Unl
Heat Index: 48°   Visibility: 10mi
Dew Point: 36°   Wind: 16mph
Humidity: 63%   Direction: 180°S
Pressure: 30.01"   Gusts: NA
Location:  42.11°N, 122.38°W
Report Text: KSIY 182353Z AUTO 18014KT 10SM SCT085 SCT100 09/02 A3001 RMK AO2 SLP178 T00890022 10106 20061 56009
Loading
Personal Weather Stations






























Interactive Weather Map New forecast layout! Learn more

10-Day Weather Forecast

Advertisements
Track Severe Weather on mobile